Aviation Digital Data Service (ADDS)

Output produced by METARs form (0039 UTC 24 May 2022)
found at http://www.aviationweather.gov/metar/data/
 
GMAD 240030Z 21003KT 8000 FEW013 18/16 Q1013 NOSIG
TAF GMAD 232300Z 2400/2506 12004KT 6000 SCT013 
     TEMPO 2405/2408 BKN010 
     BECMG 2412/2414 26012KT
       
GMMC 231900Z 02008KT 8000 BKN026 20/16 Q1014
GMFO 240030Z 21005KT CAVOK 17/07 Q1012 NOSIG
TAF GMFO 232300Z 2400/2506 20004KT CAVOK 
     TEMPO 2412/2419 33015KT
       
GMMW 240000Z 23004KT CAVOK 16/09 Q1010 NOSIG
TAF GMMW 232300Z 2400/2506 VRB02KT CAVOK
       
GMFM 240000Z 29007KT CAVOK 16/13 Q1014 RMK NOSIG
TAF GMFM 232300Z 2400/2506 VRB02KT CAVOK 
     PROB30 
     TEMPO 2402/2408 3000 BR SCT010 
     TEMPO 2414/2418 30015G25KT FEW026CB
       
GMTA 240000Z 21003KT CAVOK 21/12 Q1010 NOSIG
TAF GMTA 232300Z 2400/2506 VRB02KT CAVOK
       
GMMI 232000Z AUTO VRB16G20KT //// ////// 20/15 Q1012 NOSIG
TAF GMMI 232300Z 2400/2506 02015KT 8000 NSC
       
GMTT 240030Z 20003KT 120V270 8000 FEW008 SCT009 18/18 Q1012 NOSIG
TAF GMTT 232300Z 2400/2506 20009KT 8000 SCT006 SCT010
       
GMMX 240030Z 24006KT CAVOK 21/13 Q1014 NOSIG
TAF GMMX 232300Z 2400/2506 04006KT CAVOK 
     TEMPO 2415/2422 32016KT SCT100
       
GMMN 240000Z 36006KT 9999 BKN015 18/14 Q1014 NOSIG
TAF GMMN 232300Z 2400/2506 36008KT 9999 BKN015 
     TEMPO 2405/2409 5000 BKN010 
     BECMG 2409/2412 34012KT 
     BECMG 2418/2422 08006KT SCT016
       
GMFK 240000Z 01004KT 350V050 9999 FEW033 SCT100 23/07 Q1017 NOSIG
TAF GMFK 232300Z 2400/2506 36008KT 9999 FEW033 SCT100 
     TEMPO 2415/2418 23018G36KT 4000 BLSA
       
GMMZ 240000Z 30006KT 6000 FEW040 21/03 Q1016 NOSIG
TAF GMMZ 232300Z 2400/2506 29004KT 6000 SCT040 
     TEMPO 2412/2420 22018KT
       
GMFF 240030Z 23003KT CAVOK 17/13 Q1015 NOSIG
TAF GMFF 232300Z 2400/2506 25005KT 9999 FEW030TCU 
     BECMG 2400/2403 30005KT CAVOK 
     TEMPO 2403/2409 3000 BR BKN008 
     BECMG 2409/2412 CAVOK 
     TEMPO 2414/2418 30010KT
       
GMME 240030Z 24004KT 5000 SCT015 BKN016 19/15 Q1013 NOSIG
TAF GMME 232300Z 2400/2506 30003KT 5000 SCT015 BKN016 
     PROB30 
     TEMPO 2400/2406 4000 BR BKN006 
     TEMPO 2411/2416 36014KT
       
GMTN 240000Z 23009KT 200V260 CAVOK 20/14 Q1011 NOSIG